createdAt,value
2017-10-30T00:02:17.487Z,4.60
2017-10-30T00:04:45.861Z,5.00
2017-10-30T00:07:14.047Z,4.43
2017-10-30T00:09:42.682Z,5.43
2017-10-30T00:12:11.058Z,4.80
2017-10-30T00:14:39.444Z,4.63
2017-10-30T00:17:08.025Z,5.13
2017-10-30T00:19:36.693Z,5.20
2017-10-30T00:22:05.143Z,5.37
2017-10-30T00:24:33.510Z,5.33
2017-10-30T00:27:01.871Z,5.13
2017-10-30T00:29:31.234Z,4.70
2017-10-30T00:31:59.607Z,4.63
2017-10-30T00:34:28.004Z,4.70
2017-10-30T00:36:56.389Z,4.77
2017-10-30T00:39:24.743Z,4.90
2017-10-30T00:41:53.110Z,4.73
2017-10-30T00:44:21.482Z,4.40
2017-10-30T00:46:49.958Z,4.77
2017-10-30T00:49:18.593Z,5.10
2017-10-30T00:51:46.955Z,4.73
2017-10-30T00:54:15.335Z,4.20
2017-10-30T00:56:43.723Z,5.07
2017-10-30T00:59:12.100Z,4.27
2017-10-30T01:01:40.659Z,4.80
2017-10-30T01:04:09.036Z,4.70
2017-10-30T01:06:37.476Z,4.33
2017-10-30T01:09:05.840Z,4.90
2017-10-30T01:11:34.215Z,5.50
2017-10-30T01:14:02.584Z,4.70
2017-10-30T01:16:31.790Z,4.90
2017-10-30T01:19:01.339Z,5.43
2017-10-30T01:21:29.699Z,5.13
2017-10-30T01:23:59.638Z,4.70
2017-10-30T01:26:30.303Z,5.20
2017-10-30T01:28:59.618Z,5.20
2017-10-30T01:31:27.976Z,4.90
2017-10-30T01:33:56.387Z,4.80
2017-10-30T01:36:24.756Z,4.67
2017-10-30T01:38:53.136Z,4.77
2017-10-30T01:41:21.155Z,4.40
2017-10-30T01:43:49.567Z,4.77
2017-10-30T01:46:17.937Z,4.80
2017-10-30T01:48:46.391Z,5.97
2017-10-30T01:51:14.759Z,5.00
2017-10-30T01:53:43.127Z,4.90
2017-10-30T01:56:10.807Z,5.23
2017-10-30T01:58:39.263Z,5.50
2017-10-30T02:01:07.615Z,5.17
2017-10-30T02:03:36.065Z,5.63
2017-10-30T02:06:03.753Z,4.40
2017-10-30T02:08:32.123Z,4.97
2017-10-30T02:11:00.580Z,4.93
2017-10-30T02:13:29.170Z,5.00
2017-10-30T02:15:57.537Z,4.93
2017-10-30T02:18:25.910Z,5.30
2017-10-30T02:20:53.978Z,5.40
2017-10-30T02:23:21.994Z,5.97
2017-10-30T02:25:49.707Z,5.87
2017-10-30T02:28:17.384Z,5.23
2017-10-30T02:30:45.057Z,5.23
2017-10-30T02:33:12.751Z,5.30
2017-10-30T02:35:41.778Z,5.77
2017-10-30T02:38:09.875Z,5.27
2017-10-30T02:40:38.284Z,6.97
2017-10-30T02:43:06.561Z,6.43
2017-10-30T02:45:35.003Z,5.80
2017-10-30T02:48:03.021Z,5.80
2017-10-30T02:50:30.811Z,6.83
2017-10-30T02:52:58.483Z,5.27
2017-10-30T02:55:26.159Z,5.90
2017-10-30T02:57:53.884Z,5.93
2017-10-30T03:00:29.231Z,5.40
2017-10-30T03:02:58.932Z,5.30
2017-10-30T03:15:06.599Z,5.20
2017-10-30T03:17:34.301Z,5.87
2017-10-30T03:20:01.829Z,6.70
2017-10-30T03:22:29.523Z,5.90
2017-10-30T03:24:57.568Z,5.93
2017-10-30T03:27:25.603Z,5.80
2017-10-30T03:29:53.281Z,5.67
2017-10-30T03:32:21.323Z,5.33
2017-10-30T03:34:49.746Z,6.10
2017-10-30T03:37:18.273Z,5.67
2017-10-30T03:39:45.947Z,5.67
2017-10-30T03:42:14.414Z,6.00
2017-10-30T03:44:42.777Z,5.93
2017-10-30T03:47:11.136Z,6.37
2017-10-30T03:49:40.080Z,5.50
2017-10-30T03:52:08.439Z,5.63
2017-10-30T03:54:36.807Z,6.23
2017-10-30T03:57:04.847Z,6.80
2017-10-30T03:59:33.246Z,6.03
2017-10-30T04:02:01.077Z,6.13
2017-10-30T04:04:29.697Z,6.10
2017-10-30T04:06:58.171Z,5.07
2017-10-30T04:09:26.528Z,5.10
2017-10-30T04:11:54.925Z,6.07
2017-10-30T04:14:23.149Z,6.90
2017-10-30T04:16:51.511Z,6.40
2017-10-30T04:19:19.995Z,5.03
2017-10-30T04:21:48.366Z,5.80
2017-10-30T04:24:16.738Z,5.13
2017-10-30T04:26:45.103Z,5.77
2017-10-30T04:29:13.476Z,5.00
2017-10-30T04:31:41.870Z,5.60
2017-10-30T04:34:10.476Z,5.33
2017-10-30T04:36:38.875Z,5.23
2017-10-30T04:39:07.264Z,5.10
2017-10-30T04:41:35.642Z,4.90
2017-10-30T04:44:04.240Z,5.67
2017-10-30T04:46:32.848Z,4.40
2017-10-30T04:49:01.024Z,5.00
2017-10-30T04:51:29.443Z,4.47
2017-10-30T04:53:57.839Z,5.73
2017-10-30T04:56:26.523Z,5.23
2017-10-30T04:58:54.884Z,5.40
2017-10-30T05:01:23.465Z,5.20
2017-10-30T05:03:51.882Z,5.07
2017-10-30T05:06:20.730Z,5.40
2017-10-30T05:08:49.739Z,5.23
2017-10-30T05:11:18.974Z,4.50
2017-10-30T05:13:47.427Z,4.77
2017-10-30T05:16:17.528Z,4.27
2017-10-30T05:18:45.895Z,4.30
2017-10-30T05:21:14.816Z,4.23
2017-10-30T05:23:43.185Z,4.30
2017-10-30T05:26:11.552Z,4.30
2017-10-30T05:28:40.432Z,4.10
2017-10-30T05:31:08.796Z,4.10
2017-10-30T05:33:37.268Z,4.47
2017-10-30T05:36:05.714Z,5.00
2017-10-30T05:38:34.082Z,4.53
2017-10-30T05:41:02.448Z,5.00
2017-10-30T05:43:30.815Z,4.03
2017-10-30T05:45:59.184Z,3.93
2017-10-30T05:48:27.559Z,4.87
2017-10-30T05:50:55.931Z,4.50
2017-10-30T05:53:24.584Z,4.40
2017-10-30T05:55:52.960Z,4.83
2017-10-30T05:58:21.335Z,4.70
2017-10-30T06:00:49.781Z,4.07
2017-10-30T06:03:18.152Z,4.03
2017-10-30T06:05:46.539Z,4.00
2017-10-30T06:08:15.180Z,4.00
2017-10-30T06:10:43.534Z,4.13
2017-10-30T06:13:11.907Z,4.07
2017-10-30T06:15:40.280Z,4.60
2017-10-30T06:18:08.752Z,3.87
2017-10-30T06:20:37.334Z,3.50
2017-10-30T06:23:05.776Z,4.17
2017-10-30T06:25:34.184Z,5.00
2017-10-30T06:28:02.549Z,4.07
2017-10-30T06:30:30.915Z,4.57
2017-10-30T06:32:59.287Z,3.90
2017-10-30T06:35:28.201Z,3.80
2017-10-30T06:37:56.552Z,5.13
2017-10-30T06:40:25.680Z,3.90
2017-10-30T06:42:54.055Z,4.47
2017-10-30T06:45:22.422Z,4.00
2017-10-30T06:47:51.002Z,4.03
2017-10-30T06:50:19.686Z,4.00
2017-10-30T06:52:48.036Z,4.50
2017-10-30T06:55:17.179Z,4.07
2017-10-30T06:57:45.563Z,3.80
2017-10-30T07:00:14.418Z,4.20
2017-10-30T07:02:48.161Z,4.77
2017-10-30T07:05:17.450Z,3.53
2017-10-30T07:07:45.856Z,5.00
2017-10-30T07:10:14.223Z,3.80
2017-10-30T07:12:43.192Z,4.97
2017-10-30T07:15:11.744Z,4.23
2017-10-30T07:17:40.105Z,5.27
2017-10-30T07:20:08.472Z,4.13
2017-10-30T07:22:36.852Z,5.90
2017-10-30T07:25:05.249Z,4.50
2017-10-30T07:27:33.608Z,4.40
2017-10-30T07:30:01.789Z,4.50
2017-10-30T07:32:30.363Z,3.83
2017-10-30T07:34:58.712Z,4.10
2017-10-30T07:37:27.856Z,4.30
2017-10-30T07:39:56.228Z,4.17
2017-10-30T07:42:24.599Z,4.27
2017-10-30T07:44:52.978Z,4.90
2017-10-30T07:47:21.363Z,5.63
2017-10-30T07:49:49.723Z,4.43
2017-10-30T07:52:18.099Z,3.90
2017-10-30T07:54:46.550Z,4.00
2017-10-30T07:57:14.924Z,4.17
2017-10-30T07:59:42.960Z,4.70
2017-10-30T08:02:10.635Z,5.37
2017-10-30T08:04:39.083Z,4.33
2017-10-30T08:07:07.670Z,4.13
2017-10-30T08:09:35.944Z,4.50
2017-10-30T08:12:03.621Z,4.90
2017-10-30T08:14:32.088Z,4.00
2017-10-30T08:16:59.786Z,4.67
2017-10-30T08:19:28.114Z,4.47
2017-10-30T08:21:55.804Z,3.80
2017-10-30T08:24:24.527Z,3.80
2017-10-30T08:26:52.206Z,5.30
2017-10-30T08:29:20.222Z,4.70
2017-10-30T08:31:48.396Z,4.80
2017-10-30T08:34:17.190Z,3.80
2017-10-30T08:36:45.371Z,4.40
2017-10-30T08:39:13.379Z,8.10
2017-10-30T08:41:41.059Z,4.50
2017-10-30T08:44:09.424Z,3.70
2017-10-30T08:46:37.866Z,3.80
2017-10-30T08:49:05.892Z,4.13
2017-10-30T08:51:34.258Z,3.63
2017-10-30T08:54:02.648Z,3.93
2017-10-30T08:56:31.085Z,4.37
2017-10-30T08:58:59.128Z,4.60
2017-10-30T09:01:26.822Z,4.30
2017-10-30T09:03:54.311Z,4.83
2017-10-30T09:06:22.335Z,4.20
2017-10-30T09:08:50.069Z,6.40
2017-10-30T09:11:17.933Z,4.50
2017-10-30T09:13:45.863Z,3.87
2017-10-30T09:16:13.552Z,3.70
2017-10-30T09:18:41.324Z,3.67
2017-10-30T09:21:09.387Z,4.10
2017-10-30T09:23:37.492Z,3.70
2017-10-30T09:26:06.064Z,3.53
2017-10-30T09:28:34.210Z,3.30
2017-10-30T09:31:02.231Z,4.40
2017-10-30T09:33:29.912Z,3.90
2017-10-30T09:35:58.280Z,3.27
2017-10-30T09:38:25.954Z,3.67
2017-10-30T09:40:53.632Z,3.60
2017-10-30T09:43:21.655Z,4.00
2017-10-30T09:45:49.334Z,3.50
2017-10-30T09:48:17.223Z,4.10
2017-10-30T09:50:45.241Z,3.87
2017-10-30T09:53:13.267Z,3.50
2017-10-30T09:55:41.287Z,3.50
2017-10-30T09:58:08.983Z,3.50
2017-10-30T10:00:36.730Z,3.90
2017-10-30T10:03:05.115Z,3.10
2017-10-30T10:05:32.790Z,3.40
2017-10-30T10:08:00.476Z,4.00
2017-10-30T10:10:28.508Z,4.50
2017-10-30T10:12:56.183Z,3.20
2017-10-30T10:15:24.026Z,3.40
2017-10-30T10:17:52.067Z,3.70
2017-10-30T10:20:21.003Z,3.30
2017-10-30T10:22:49.031Z,3.67
2017-10-30T10:25:17.058Z,3.37
2017-10-30T10:27:44.735Z,3.00
2017-10-30T10:30:12.770Z,3.10
2017-10-30T10:32:41.461Z,3.07
2017-10-30T10:35:09.831Z,3.10
2017-10-30T10:37:38.209Z,3.50
2017-10-30T10:40:05.947Z,2.70
2017-10-30T10:42:34.033Z,4.50
2017-10-30T10:45:02.140Z,3.57
2017-10-30T10:47:30.512Z,3.30
2017-10-30T10:49:58.891Z,3.80
2017-10-30T10:52:26.928Z,2.93
2017-10-30T10:54:55.525Z,4.13
2017-10-30T10:57:23.968Z,3.13
2017-10-30T10:59:52.321Z,2.90
2017-10-30T11:02:20.688Z,3.90
2017-10-30T11:04:50.013Z,3.50
2017-10-30T11:07:17.688Z,3.90
2017-10-30T11:09:46.070Z,3.70
2017-10-30T11:12:14.444Z,3.70
2017-10-30T11:14:42.811Z,3.47
2017-10-30T11:17:10.498Z,3.90
2017-10-30T11:19:38.527Z,4.00
2017-10-30T11:22:06.905Z,3.80
2017-10-30T11:24:35.280Z,3.20
2017-10-30T11:27:03.660Z,3.93
2017-10-30T11:29:32.191Z,3.10
2017-10-30T11:32:00.614Z,3.23
2017-10-30T11:34:28.986Z,3.73
2017-10-30T11:36:57.351Z,3.30
2017-10-30T11:39:25.716Z,3.30
2017-10-30T11:41:55.038Z,3.10
2017-10-30T11:44:23.398Z,3.40
2017-10-30T11:46:51.763Z,2.60
2017-10-30T11:49:20.910Z,2.90
2017-10-30T11:51:49.280Z,3.30
2017-10-30T11:54:17.663Z,3.40
2017-10-30T11:56:46.032Z,2.50
2017-10-30T11:59:14.591Z,3.10
2017-10-30T12:01:46.648Z,3.00
2017-10-30T12:04:15.246Z,2.50
2017-10-30T12:06:43.619Z,3.37
2017-10-30T12:09:11.727Z,4.07
2017-10-30T12:11:40.110Z,3.10
2017-10-30T12:14:08.534Z,2.70
2017-10-30T12:16:37.007Z,2.47
2017-10-30T12:19:05.591Z,2.73
2017-10-30T12:21:34.032Z,2.80
2017-10-30T12:24:02.408Z,2.70
2017-10-30T12:26:30.793Z,3.43
2017-10-30T12:28:59.162Z,2.73
2017-10-30T12:31:27.575Z,2.93
2017-10-30T12:33:55.950Z,2.70
2017-10-30T12:36:26.210Z,2.67
2017-10-30T12:38:54.751Z,2.60
2017-10-30T12:41:23.340Z,3.37
2017-10-30T12:43:51.704Z,3.20
2017-10-30T12:46:19.884Z,2.50
2017-10-30T12:48:48.279Z,2.97
2017-10-30T12:51:16.655Z,2.90
2017-10-30T12:53:45.032Z,2.60
2017-10-30T12:56:12.727Z,2.77
2017-10-30T12:58:41.139Z,2.93
2017-10-30T13:01:09.625Z,3.60
2017-10-30T13:03:37.993Z,3.43
2017-10-30T13:06:06.020Z,3.40
2017-10-30T13:08:34.200Z,2.67
2017-10-30T13:11:02.687Z,2.70
2017-10-30T13:13:31.195Z,3.30
2017-10-30T13:15:59.730Z,2.90
2017-10-30T13:18:28.146Z,2.90
2017-10-30T13:20:56.180Z,3.50
2017-10-30T13:23:24.547Z,2.70
2017-10-30T13:25:53.322Z,2.70
2017-10-30T13:28:21.703Z,2.67
2017-10-30T13:30:50.098Z,3.00
2017-10-30T13:33:18.483Z,2.83
2017-10-30T13:35:47.630Z,2.43
2017-10-30T13:38:16.036Z,2.93
2017-10-30T13:40:45.185Z,3.30
2017-10-30T13:43:13.957Z,3.10
2017-10-30T13:45:42.322Z,3.10
2017-10-30T13:48:10.808Z,3.37
2017-10-30T13:50:39.167Z,3.03
2017-10-30T13:53:07.540Z,3.33
2017-10-30T13:55:35.928Z,3.00
2017-10-30T13:58:03.860Z,3.13
2017-10-30T14:00:32.231Z,3.37
2017-10-30T14:03:00.759Z,2.70
2017-10-30T14:05:29.132Z,3.27
2017-10-30T14:07:57.498Z,3.27
2017-10-30T14:10:25.884Z,2.93
2017-10-30T14:12:54.464Z,3.37
2017-10-30T14:15:23.462Z,3.30
2017-10-30T14:17:51.826Z,2.97
2017-10-30T14:20:20.007Z,3.40
2017-10-30T14:22:48.387Z,2.70
2017-10-30T14:25:16.788Z,3.30
2017-10-30T14:27:45.160Z,2.80
2017-10-30T14:30:13.537Z,3.00
2017-10-30T14:32:41.563Z,3.00
2017-10-30T14:35:09.935Z,3.03
2017-10-30T14:37:38.071Z,3.40
2017-10-30T14:40:06.307Z,2.77
2017-10-30T14:42:33.995Z,2.60
2017-10-30T14:45:03.381Z,2.60
2017-10-30T14:47:31.123Z,3.17
2017-10-30T14:49:58.829Z,2.70
2017-10-30T14:52:28.366Z,2.87
2017-10-30T14:54:56.036Z,2.60
2017-10-30T14:57:23.796Z,2.90
2017-10-30T14:59:51.559Z,3.17
2017-10-30T15:02:19.320Z,3.10
2017-10-30T15:04:47.072Z,2.97
2017-10-30T15:07:14.756Z,3.33
2017-10-30T15:09:42.807Z,3.30
2017-10-30T15:12:11.185Z,2.40
2017-10-30T15:14:39.803Z,2.70
2017-10-30T15:17:08.345Z,2.83
2017-10-30T15:19:36.724Z,2.90
2017-10-30T15:22:04.408Z,3.00
2017-10-30T15:24:33.768Z,3.20
2017-10-30T15:27:02.544Z,3.10
2017-10-30T15:29:30.911Z,2.73
2017-10-30T15:31:59.283Z,3.17
2017-10-30T15:34:27.653Z,3.13
2017-10-30T15:36:56.027Z,2.73
2017-10-30T15:39:24.401Z,2.70
2017-10-30T15:41:52.428Z,2.93
2017-10-30T15:44:20.796Z,2.50
2017-10-30T15:46:49.199Z,2.90
2017-10-30T15:49:17.574Z,3.00
2017-10-30T15:51:45.950Z,3.10
2017-10-30T15:54:14.331Z,3.30
2017-10-30T15:56:42.976Z,3.97
2017-10-30T15:59:11.350Z,3.67
2017-10-30T16:01:39.714Z,3.17
2017-10-30T16:04:08.096Z,3.77
2017-10-30T16:06:36.480Z,3.00
2017-10-30T16:09:04.215Z,3.53
2017-10-30T16:11:33.356Z,3.00
2017-10-30T16:14:01.724Z,3.03
2017-10-30T16:16:30.092Z,3.10
2017-10-30T16:18:58.459Z,3.20
2017-10-30T16:21:27.039Z,3.30
2017-10-30T16:23:55.416Z,3.40
2017-10-30T16:26:23.775Z,2.97
2017-10-30T16:28:52.175Z,2.83
2017-10-30T16:31:20.543Z,3.40
2017-10-30T16:33:48.952Z,3.23
2017-10-30T16:36:17.331Z,2.80
2017-10-30T16:38:45.352Z,2.90
2017-10-30T16:41:13.931Z,2.80
2017-10-30T16:43:42.303Z,2.90
2017-10-30T16:46:10.325Z,3.63
2017-10-30T16:48:38.696Z,2.70
2017-10-30T16:51:07.074Z,2.60
2017-10-30T16:53:35.447Z,2.90
2017-10-30T16:56:03.121Z,2.90
2017-10-30T16:58:31.495Z,3.50
2017-10-30T17:00:59.258Z,3.10
2017-10-30T17:03:27.443Z,3.20
2017-10-30T17:05:55.818Z,2.97
2017-10-30T17:08:24.208Z,3.40
2017-10-30T17:10:53.539Z,3.07
2017-10-30T17:13:21.912Z,3.87
2017-10-30T17:15:50.308Z,2.83
2017-10-30T17:18:18.689Z,3.80
2017-10-30T17:20:47.067Z,3.13
2017-10-30T17:23:15.440Z,3.30
2017-10-30T17:25:46.550Z,3.60
2017-10-30T17:28:14.916Z,3.77
2017-10-30T17:30:43.306Z,3.60
2017-10-30T17:33:11.664Z,3.30
2017-10-30T17:35:40.065Z,3.60
2017-10-30T17:38:08.434Z,3.70
2017-10-30T17:40:36.911Z,3.90
2017-10-30T17:43:05.597Z,4.13
2017-10-30T17:45:34.276Z,3.07
2017-10-30T17:48:02.655Z,3.13
2017-10-30T17:50:31.099Z,4.20
2017-10-30T17:52:59.470Z,4.10
2017-10-30T17:55:28.160Z,3.60
2017-10-30T17:57:56.531Z,3.93
2017-10-30T18:00:24.943Z,3.87
2017-10-30T18:02:53.323Z,4.00
2017-10-30T18:05:21.697Z,3.63
2017-10-30T18:07:50.078Z,4.00
2017-10-30T18:10:18.753Z,3.80
2017-10-30T18:12:47.112Z,4.10
2017-10-30T18:15:15.566Z,3.83
2017-10-30T18:17:43.934Z,3.90
2017-10-30T18:20:12.298Z,4.53
2017-10-30T18:22:40.674Z,3.90
2017-10-30T18:25:09.055Z,3.80
2017-10-30T18:27:37.431Z,4.23
2017-10-30T18:30:05.867Z,3.80
2017-10-30T18:32:34.240Z,4.20
2017-10-30T18:35:02.630Z,4.53
2017-10-30T18:37:31.247Z,4.30
2017-10-30T18:39:59.625Z,4.37
2017-10-30T18:42:27.979Z,4.43
2017-10-30T18:44:56.352Z,4.50
2017-10-30T18:47:24.749Z,3.97
2017-10-30T18:49:53.123Z,4.77
2017-10-30T18:52:21.733Z,4.47
2017-10-30T18:54:51.058Z,4.33
2017-10-30T18:57:19.432Z,4.33
2017-10-30T18:59:47.795Z,4.40
2017-10-30T19:02:16.181Z,4.33
2017-10-30T19:04:44.549Z,5.10
2017-10-30T19:07:12.915Z,4.57
2017-10-30T19:09:41.282Z,4.30
2017-10-30T19:12:10.413Z,4.83
2017-10-30T19:14:38.787Z,4.57
2017-10-30T19:17:07.164Z,3.97
2017-10-30T19:19:35.742Z,5.10
2017-10-30T19:22:03.807Z,4.90
2017-10-30T19:24:32.183Z,5.07
2017-10-30T19:27:00.820Z,5.20
2017-10-30T19:29:29.199Z,5.43
2017-10-30T19:31:58.356Z,5.03
2017-10-30T19:34:26.707Z,5.00
2017-10-30T19:36:56.558Z,4.90
2017-10-30T19:39:27.667Z,4.27
2017-10-30T19:41:56.758Z,4.03
2017-10-30T19:44:25.744Z,4.67
2017-10-30T19:46:54.987Z,5.37
2017-10-30T19:49:23.831Z,4.80
2017-10-30T19:51:52.234Z,5.20
2017-10-30T19:54:20.615Z,5.10
2017-10-30T19:56:49.157Z,5.43
2017-10-30T19:59:17.609Z,4.90
2017-10-30T20:01:45.975Z,4.70
2017-10-30T20:04:14.344Z,5.10
2017-10-30T20:06:47.806Z,5.30
2017-10-30T20:09:21.785Z,5.33
2017-10-30T20:11:55.530Z,5.00
2017-10-30T20:14:23.915Z,4.87
2017-10-30T20:16:52.325Z,4.90
2017-10-30T20:19:20.706Z,5.10
2017-10-30T20:21:49.334Z,5.13
2017-10-30T20:24:21.319Z,5.10
2017-10-30T20:26:50.949Z,4.77
2017-10-30T20:29:20.601Z,6.10
2017-10-30T20:31:49.150Z,5.43
2017-10-30T20:34:18.859Z,5.03
2017-10-30T20:36:47.438Z,5.53
2017-10-30T20:39:15.798Z,5.83
2017-10-30T20:41:44.198Z,5.43
2017-10-30T20:44:12.572Z,5.00
2017-10-30T20:46:40.948Z,5.70
2017-10-30T20:49:09.368Z,5.73
2017-10-30T20:51:37.746Z,6.03
2017-10-30T20:54:06.118Z,5.00
2017-10-30T20:56:34.536Z,5.40
2017-10-30T20:59:02.909Z,6.17
2017-10-30T21:01:31.434Z,5.57
2017-10-30T21:03:59.829Z,6.10
2017-10-30T21:06:28.491Z,6.33
2017-10-30T21:08:56.858Z,5.50
2017-10-30T21:11:25.219Z,5.57
2017-10-30T21:13:53.587Z,6.37
2017-10-30T21:16:22.067Z,5.87
2017-10-30T21:18:50.442Z,5.83
2017-10-30T21:21:18.828Z,5.40
2017-10-30T21:23:47.225Z,6.00
2017-10-30T21:26:15.671Z,6.17
2017-10-30T21:28:44.029Z,6.00
2017-10-30T21:31:12.399Z,6.17
2017-10-30T21:33:40.799Z,6.10
2017-10-30T21:36:09.721Z,6.30
2017-10-30T21:38:38.096Z,6.03
2017-10-30T21:41:06.504Z,6.23
2017-10-30T21:43:34.915Z,6.30
2017-10-30T21:46:03.867Z,7.57
2017-10-30T21:48:32.250Z,7.00
2017-10-30T21:51:01.419Z,7.00
2017-10-30T21:53:29.796Z,6.60
2017-10-30T21:55:58.815Z,6.90
2017-10-30T21:58:27.702Z,6.40
2017-10-30T22:00:56.102Z,6.87
2017-10-30T22:03:24.137Z,6.40
2017-10-30T22:05:52.495Z,7.10
2017-10-30T22:08:21.409Z,7.07
2017-10-30T22:10:49.792Z,7.33
2017-10-30T22:13:18.418Z,7.60
2017-10-30T22:15:46.794Z,6.53
2017-10-30T22:18:16.510Z,6.63
2017-10-30T22:20:45.063Z,7.47
2017-10-30T22:23:13.133Z,7.60
2017-10-30T22:25:41.813Z,6.43
2017-10-30T22:28:10.267Z,7.33
2017-10-30T22:30:38.638Z,6.77
2017-10-30T22:33:07.024Z,6.33
2017-10-30T22:35:35.399Z,7.10
2017-10-30T22:38:03.783Z,7.70
2017-10-30T22:40:32.191Z,6.67
2017-10-30T22:43:00.749Z,7.23
2017-10-30T22:45:29.125Z,6.97
2017-10-30T22:47:57.813Z,6.93
2017-10-30T22:50:26.189Z,6.33
2017-10-30T22:52:54.614Z,6.80
2017-10-30T22:55:23.009Z,7.93
2017-10-30T22:57:52.136Z,6.80
2017-10-30T23:00:20.511Z,6.63
2017-10-30T23:02:48.889Z,7.60
2017-10-30T23:05:17.261Z,7.70
2017-10-30T23:07:45.633Z,7.17
2017-10-30T23:10:14.010Z,7.17
2017-10-30T23:12:42.390Z,7.37
2017-10-30T23:15:10.763Z,7.60
2017-10-30T23:17:39.353Z,7.67
2017-10-30T23:20:07.944Z,7.40
2017-10-30T23:22:36.317Z,7.37
2017-10-30T23:25:05.700Z,6.93
2017-10-30T23:27:34.177Z,6.77
2017-10-30T23:30:02.540Z,6.40
2017-10-30T23:32:30.939Z,7.77
2017-10-30T23:34:59.312Z,8.23
2017-10-30T23:37:28.402Z,7.20
2017-10-30T23:39:56.979Z,7.40
2017-10-30T23:42:25.343Z,6.83
2017-10-30T23:44:53.708Z,7.00
2017-10-30T23:47:22.858Z,7.40
2017-10-30T23:49:51.238Z,6.33
2017-10-30T23:52:19.599Z,7.10
2017-10-30T23:54:48.244Z,7.33
2017-10-30T23:57:16.634Z,6.63
2017-10-30T23:59:45.003Z,7.70
